Terminal Aerodrome Forecast
Issued by NWS

Home | Current Version | Previous Version | Text Only | Print | Product List | Glossary On
Versions: 1 2 3 4 5 6 7 8 9 10 11 12 13 14 15 16 17 18 19 20 21
763
FTUS43 KGRR 260815 AAA
TAFJXN
TAF AMD
KJXN 260815Z 2608/2706 VRB03KT 4SM BR SCT250
     FM261300 VRB03KT P6SM SCT250=

USA.gov is the U.S. government's official web portal to all federal, state and local government web resources and services.